Terminal Aerodrome Forecast
Issued by NWS Boston, MA

Home | Current Version | Previous Version | Text Only | Print | Product List | Glossary On
Versions: 1 2 3 4 5 6 7 8 9 10 11 12 13 14 15 16 17 18 19 20 21 22 23 24 25 26 27 28 29 30 31 32 33 34 35 36 37 38 39 40 41 42 43 44 45 46 47 48 49
000
FTUS41 KBOX 272023 AAA
TAFBOS
TAF AMD
KBOS 272023Z 2720/2824 32012G22KT P6SM BKN045
     FM272100 33009KT P6SM -RA OVC035
     FM280200 36008KT P6SM OVC035
     FM280400 01008G18KT P6SM BKN025
     FM280900 01013G23KT P6SM BKN020
     FM281400 01011G20KT P6SM BKN040=

USA.gov is the U.S. government's official web portal to all federal, state and local government web resources and services.